createdAt,value
2019-03-24T00:01:10.861Z,25.85
2019-03-24T00:03:39.188Z,17.57
2019-03-24T00:06:07.492Z,20.77
2019-03-24T00:08:35.773Z,19.73
2019-03-24T00:11:04.325Z,22.27
2019-03-24T00:13:32.662Z,25.02
2019-03-24T00:16:01.196Z,20.25
2019-03-24T00:18:29.502Z,22.52
2019-03-24T00:20:57.786Z,22.52
2019-03-24T00:23:26.171Z,24.07
2019-03-24T00:25:54.457Z,22.80
2019-03-24T00:28:22.769Z,25.95
2019-03-24T00:30:51.068Z,24.82
2019-03-24T00:33:19.373Z,22.40
2019-03-24T00:35:47.731Z,23.47
2019-03-24T00:38:16.043Z,24.23
2019-03-24T00:40:44.665Z,28.42
2019-03-24T00:43:12.966Z,24.90
2019-03-24T00:45:41.626Z,26.37
2019-03-24T00:48:09.939Z,29.25
2019-03-24T00:50:38.263Z,31.37
2019-03-24T00:53:06.558Z,27.85
2019-03-24T00:55:34.885Z,25.10
2019-03-24T00:58:03.195Z,32.65
2019-03-24T01:00:46.374Z,31.97
2019-03-24T01:03:15.157Z,31.40
2019-03-24T01:05:43.790Z,30.17
2019-03-24T01:08:12.431Z,26.90
2019-03-24T01:10:40.747Z,29.12
2019-03-24T01:13:09.073Z,29.55
2019-03-24T01:15:47.305Z,24.57
2019-03-24T01:18:08.060Z,24.02
2019-03-24T01:20:36.659Z,21.10
2019-03-24T01:23:05.013Z,20.80
2019-03-24T01:25:33.589Z,18.70
2019-03-24T01:28:01.976Z,22.13
2019-03-24T01:30:30.265Z,26.40
2019-03-24T01:32:58.588Z,22.75
2019-03-24T01:35:26.874Z,22.02
2019-03-24T01:37:55.175Z,26.12
2019-03-24T01:40:23.783Z,23.87
2019-03-24T01:42:52.368Z,21.02
2019-03-24T01:45:20.955Z,16.65
2019-03-24T01:47:49.281Z,19.87
2019-03-24T01:50:17.570Z,18.55
2019-03-24T01:52:45.870Z,16.30
2019-03-24T01:55:15.072Z,19.12
2019-03-24T01:57:43.366Z,20.23
2019-03-24T02:00:12.302Z,21.35
2019-03-24T02:02:40.603Z,20.52
2019-03-24T02:05:08.924Z,22.48
2019-03-24T02:07:37.323Z,18.23
2019-03-24T02:10:10.274Z,21.20
2019-03-24T02:12:38.841Z,22.40
2019-03-24T02:15:08.141Z,23.27
2019-03-24T02:17:36.443Z,19.30
2019-03-24T02:20:05.900Z,17.50
2019-03-24T02:22:34.275Z,20.50
2019-03-24T02:25:02.634Z,15.23
2019-03-24T02:27:30.929Z,18.52
2019-03-24T02:29:59.270Z,22.93
2019-03-24T02:32:27.874Z,21.87
2019-03-24T02:34:56.223Z,19.37
2019-03-24T02:37:24.524Z,21.17
2019-03-24T02:39:52.839Z,17.15
2019-03-24T02:42:21.436Z,20.23
2019-03-24T02:44:49.737Z,19.82
2019-03-24T02:47:18.040Z,20.90
2019-03-24T02:49:46.338Z,17.12
2019-03-24T02:52:14.959Z,19.75
2019-03-24T02:54:43.244Z,19.57
2019-03-24T02:57:11.564Z,26.82
2019-03-24T02:59:39.932Z,19.30
2019-03-24T03:02:08.224Z,20.37
2019-03-24T03:04:36.962Z,20.48
2019-03-24T03:07:05.642Z,15.23
2019-03-24T03:09:34.219Z,19.05
2019-03-24T03:12:02.554Z,18.23
2019-03-24T03:14:31.182Z,19.33
2019-03-24T03:16:59.490Z,17.77
2019-03-24T03:19:27.800Z,15.15
2019-03-24T03:21:56.100Z,20.80
2019-03-24T03:24:24.802Z,20.90
2019-03-24T03:26:53.112Z,21.65
2019-03-24T03:29:21.426Z,20.05
2019-03-24T03:31:49.740Z,21.47
2019-03-24T03:34:18.045Z,25.80
2019-03-24T03:36:46.321Z,21.27
2019-03-24T03:39:14.721Z,18.92
2019-03-24T03:41:43.043Z,19.17
2019-03-24T03:44:11.380Z,21.85
2019-03-24T03:46:51.859Z,18.50
2019-03-24T03:49:09.743Z,23.05
2019-03-24T03:51:38.058Z,16.77
2019-03-24T03:54:06.356Z,20.50
2019-03-24T03:56:34.667Z,17.73
2019-03-24T03:59:02.968Z,17.90
2019-03-24T04:01:31.352Z,18.17
2019-03-24T04:03:59.630Z,19.23
2019-03-24T04:06:28.261Z,17.20
2019-03-24T04:08:56.666Z,19.57
2019-03-24T04:11:24.980Z,22.05
2019-03-24T04:13:53.277Z,26.42
2019-03-24T04:16:21.623Z,18.98
2019-03-24T04:18:50.266Z,24.12
2019-03-24T04:21:18.575Z,24.70
2019-03-24T04:23:46.883Z,24.97
2019-03-24T04:26:15.206Z,27.45
2019-03-24T04:28:43.535Z,27.32
2019-03-24T04:31:11.981Z,27.27
2019-03-24T04:33:40.289Z,21.02
2019-03-24T04:36:08.907Z,23.07
2019-03-24T04:38:37.222Z,24.47
2019-03-24T04:41:05.763Z,22.75
2019-03-24T04:43:34.340Z,19.53
2019-03-24T04:46:02.704Z,29.37
2019-03-24T04:48:31.067Z,19.65
2019-03-24T04:50:59.347Z,15.25
2019-03-24T04:53:27.631Z,23.10
2019-03-24T04:55:56.088Z,25.45
2019-03-24T04:58:24.609Z,24.98
2019-03-24T05:00:52.940Z,21.10
2019-03-24T05:03:21.233Z,23.87
2019-03-24T05:05:49.797Z,28.05
2019-03-24T05:08:18.285Z,26.52
2019-03-24T05:10:46.592Z,30.70
2019-03-24T05:13:14.898Z,29.32
2019-03-24T05:15:43.473Z,24.47
2019-03-24T05:18:11.784Z,22.00
2019-03-24T05:20:40.066Z,19.65
2019-03-24T05:23:08.371Z,23.85
2019-03-24T05:25:36.656Z,23.65
2019-03-24T05:28:04.966Z,27.70
2019-03-24T05:30:33.272Z,30.75
2019-03-24T05:33:01.650Z,32.45
2019-03-24T05:35:29.937Z,24.25
2019-03-24T05:37:58.248Z,31.20
2019-03-24T05:40:26.556Z,22.50
2019-03-24T05:42:54.896Z,27.63
2019-03-24T05:45:23.142Z,24.32
2019-03-24T05:47:51.450Z,29.52
2019-03-24T05:50:19.788Z,24.10
2019-03-24T05:52:48.108Z,30.02
2019-03-24T05:55:16.718Z,23.60
2019-03-24T05:57:45.018Z,32.88
2019-03-24T06:00:13.593Z,28.27
2019-03-24T06:02:42.361Z,33.58
2019-03-24T06:05:11.043Z,24.75
2019-03-24T06:07:39.350Z,26.10
2019-03-24T06:10:08.539Z,29.18
2019-03-24T06:12:36.841Z,26.35
2019-03-24T06:15:08.002Z,27.00
2019-03-24T06:17:36.335Z,28.23
2019-03-24T06:20:06.265Z,31.42
2019-03-24T06:22:34.566Z,31.10
2019-03-24T06:25:02.874Z,24.95
2019-03-24T06:27:31.178Z,29.40
2019-03-24T06:29:59.465Z,24.40
2019-03-24T06:32:27.794Z,28.33
2019-03-24T06:34:56.068Z,29.77
2019-03-24T06:37:24.401Z,25.15
2019-03-24T06:39:52.681Z,31.93
2019-03-24T06:42:21.007Z,25.82
2019-03-24T06:44:49.305Z,31.95
2019-03-24T06:47:17.596Z,27.32
2019-03-24T06:49:45.909Z,27.30
2019-03-24T06:52:14.646Z,37.83
2019-03-24T06:54:42.981Z,34.17
2019-03-24T06:57:11.277Z,37.98
2019-03-24T06:59:39.601Z,31.68
2019-03-24T07:02:08.260Z,30.00
2019-03-24T07:04:36.600Z,34.23
2019-03-24T07:07:04.885Z,36.80
2019-03-24T07:09:33.269Z,37.23
2019-03-24T07:12:01.577Z,40.88
2019-03-24T07:14:29.884Z,41.25
2019-03-24T07:16:58.171Z,31.73
2019-03-24T07:19:26.480Z,39.18
2019-03-24T07:21:54.779Z,37.67
2019-03-24T07:24:23.218Z,31.75
2019-03-24T07:26:51.498Z,28.25
2019-03-24T07:29:19.794Z,31.20
2019-03-24T07:31:48.419Z,36.85
2019-03-24T07:34:16.695Z,28.85
2019-03-24T07:36:45.019Z,35.75
2019-03-24T07:39:13.640Z,29.67
2019-03-24T07:41:41.956Z,30.90
2019-03-24T07:44:10.308Z,34.73
2019-03-24T07:46:38.633Z,29.02
2019-03-24T07:49:07.245Z,24.80
2019-03-24T07:51:35.550Z,32.33
2019-03-24T07:54:03.852Z,32.33
2019-03-24T07:56:32.195Z,31.00
2019-03-24T07:59:00.499Z,30.95
2019-03-24T08:01:28.856Z,25.60
2019-03-24T08:03:57.180Z,32.03
2019-03-24T08:06:25.467Z,33.05
2019-03-24T08:08:54.099Z,31.73
2019-03-24T08:11:22.417Z,31.02
2019-03-24T08:13:53.937Z,31.67
2019-03-24T08:16:20.909Z,31.97
2019-03-24T08:18:49.194Z,29.80
2019-03-24T08:21:17.927Z,32.63
2019-03-24T08:23:46.597Z,34.67
2019-03-24T08:26:14.894Z,30.48
2019-03-24T08:28:43.466Z,27.45
2019-03-24T08:31:12.032Z,29.52
2019-03-24T08:33:40.373Z,28.47
2019-03-24T08:36:08.681Z,26.80
2019-03-24T08:38:37.014Z,28.27
2019-03-24T08:41:05.554Z,34.83
2019-03-24T08:43:33.864Z,25.32
2019-03-24T08:46:02.163Z,25.80
2019-03-24T08:48:40.375Z,33.48
2019-03-24T08:51:00.921Z,28.38
2019-03-24T08:53:29.208Z,28.92
2019-03-24T08:55:57.534Z,27.30
2019-03-24T08:58:26.169Z,24.90
2019-03-24T09:00:54.743Z,32.00
2019-03-24T09:03:23.049Z,31.65
2019-03-24T09:05:51.702Z,32.30
2019-03-24T09:08:20.266Z,28.05
2019-03-24T09:10:48.631Z,31.87
2019-03-24T09:13:16.913Z,32.20
2019-03-24T09:15:45.522Z,25.72
2019-03-24T09:18:14.062Z,23.55
2019-03-24T09:20:42.474Z,29.07
2019-03-24T09:23:10.840Z,29.05
2019-03-24T09:25:39.127Z,29.77
2019-03-24T09:28:09.249Z,26.20
2019-03-24T09:30:38.378Z,28.17
2019-03-24T09:33:07.248Z,39.98
2019-03-24T09:35:35.537Z,36.33
2019-03-24T09:38:04.011Z,28.20
2019-03-24T09:40:35.850Z,27.80
2019-03-24T09:43:05.644Z,30.40
2019-03-24T09:45:33.989Z,28.67
2019-03-24T09:48:02.791Z,28.10
2019-03-24T09:50:31.274Z,32.28
2019-03-24T09:52:59.629Z,25.32
2019-03-24T09:55:27.971Z,28.35
2019-03-24T09:57:56.284Z,25.80
2019-03-24T10:00:24.879Z,26.60
2019-03-24T10:02:53.163Z,30.52
2019-03-24T10:05:21.488Z,23.32
2019-03-24T10:07:49.785Z,31.62
2019-03-24T10:10:18.184Z,26.30
2019-03-24T10:12:46.727Z,27.60
2019-03-24T10:15:16.108Z,23.18
2019-03-24T10:17:44.782Z,26.57
2019-03-24T10:20:13.283Z,22.65
2019-03-24T10:22:41.588Z,23.02
2019-03-24T10:25:09.878Z,25.68
2019-03-24T10:27:38.165Z,30.65
2019-03-24T10:30:08.183Z,20.88
2019-03-24T10:32:36.488Z,24.45
2019-03-24T10:35:06.454Z,24.32
2019-03-24T10:37:34.771Z,18.87
2019-03-24T10:40:03.349Z,24.55
2019-03-24T10:42:31.725Z,24.50
2019-03-24T10:45:00.367Z,26.15
2019-03-24T10:47:28.678Z,24.63
2019-03-24T10:49:56.979Z,29.87
2019-03-24T10:52:25.303Z,26.57
2019-03-24T10:54:53.625Z,26.75
2019-03-24T10:57:21.990Z,19.82
2019-03-24T10:59:50.287Z,20.02
2019-03-24T11:02:18.631Z,21.85
2019-03-24T11:04:46.935Z,26.87
2019-03-24T11:07:15.566Z,26.03
2019-03-24T11:09:45.081Z,32.85
2019-03-24T11:12:13.855Z,29.23
2019-03-24T11:14:42.166Z,14.65
2019-03-24T11:17:10.466Z,21.17
2019-03-24T11:19:39.511Z,16.60
2019-03-24T11:22:07.869Z,18.10
2019-03-24T11:24:36.182Z,19.62
2019-03-24T11:27:04.484Z,18.17
2019-03-24T11:29:32.812Z,16.93
2019-03-24T11:32:01.113Z,24.52
2019-03-24T11:34:29.426Z,16.25
2019-03-24T11:36:57.717Z,17.17
2019-03-24T11:39:26.349Z,27.17
2019-03-24T11:41:54.666Z,22.90
2019-03-24T11:44:22.954Z,23.60
2019-03-24T11:46:51.274Z,19.12
2019-03-24T11:49:20.146Z,17.77
2019-03-24T11:51:48.550Z,22.17
2019-03-24T11:54:16.867Z,14.53
2019-03-24T11:56:45.183Z,14.85
2019-03-24T11:59:13.765Z,14.90
2019-03-24T12:01:42.092Z,15.73
2019-03-24T12:04:10.386Z,15.75
2019-03-24T12:06:38.715Z,13.80
2019-03-24T12:09:07.311Z,15.78
2019-03-24T12:11:35.633Z,44.75
2019-03-24T12:14:04.993Z,24.07
2019-03-24T12:16:33.573Z,15.43
2019-03-24T12:19:01.862Z,14.00
2019-03-24T12:21:30.198Z,21.10
2019-03-24T12:23:58.624Z,11.12
2019-03-24T12:26:27.272Z,12.80
2019-03-24T12:28:55.595Z,11.90
2019-03-24T12:31:23.908Z,15.23
2019-03-24T12:33:52.510Z,13.62
2019-03-24T12:36:21.092Z,13.38
2019-03-24T12:38:49.675Z,14.28
2019-03-24T12:41:17.966Z,7.20
2019-03-24T12:43:46.290Z,13.58
2019-03-24T12:46:14.625Z,10.77
2019-03-24T12:48:42.916Z,12.13
2019-03-24T12:51:11.211Z,12.60
2019-03-24T12:53:39.837Z,9.83
2019-03-24T12:56:08.149Z,7.80
2019-03-24T12:58:36.455Z,8.78
2019-03-24T13:01:05.002Z,7.95
2019-03-24T13:03:35.839Z,11.03
2019-03-24T13:06:03.801Z,7.58
2019-03-24T13:08:32.092Z,6.50
2019-03-24T13:11:00.398Z,7.60
2019-03-24T13:13:29.022Z,7.95
2019-03-24T13:15:57.606Z,6.25
2019-03-24T13:18:25.896Z,4.75
2019-03-24T13:20:54.195Z,9.40
2019-03-24T13:23:22.481Z,8.15
2019-03-24T13:25:50.888Z,6.87
2019-03-24T13:28:19.458Z,6.40
2019-03-24T13:30:47.806Z,7.10
2019-03-24T13:33:16.462Z,4.95
2019-03-24T13:35:44.832Z,5.30
2019-03-24T13:38:13.121Z,7.50
2019-03-24T13:40:41.418Z,6.12
2019-03-24T13:43:09.759Z,7.28
2019-03-24T13:45:38.044Z,8.30
2019-03-24T13:48:06.751Z,8.35
2019-03-24T13:50:35.049Z,7.03
2019-03-24T13:53:03.688Z,5.35
2019-03-24T13:55:32.220Z,4.90
2019-03-24T13:58:00.596Z,6.00
2019-03-24T14:00:28.893Z,5.62
2019-03-24T14:02:57.451Z,4.83
2019-03-24T14:05:25.737Z,4.47
2019-03-24T14:07:54.049Z,13.15
2019-03-24T14:10:22.364Z,10.68
2019-03-24T14:12:50.778Z,8.30
2019-03-24T14:15:19.092Z,7.85
2019-03-24T14:17:47.677Z,7.70
2019-03-24T14:20:15.990Z,6.00
2019-03-24T14:22:44.279Z,7.10
2019-03-24T14:25:12.593Z,5.87
2019-03-24T14:27:40.878Z,6.05
2019-03-24T14:30:09.623Z,5.35
2019-03-24T14:32:37.850Z,5.53
2019-03-24T14:35:07.729Z,4.47
2019-03-24T14:37:36.023Z,7.22
2019-03-24T14:40:05.986Z,8.65
2019-03-24T14:42:34.271Z,7.40
2019-03-24T14:45:02.658Z,9.15
2019-03-24T14:47:30.968Z,8.50
2019-03-24T14:49:59.297Z,7.75
2019-03-24T14:52:27.681Z,7.10
2019-03-24T14:54:55.995Z,8.37
2019-03-24T14:57:24.364Z,8.75
2019-03-24T14:59:53.017Z,6.95
2019-03-24T15:02:21.322Z,10.10
2019-03-24T15:04:49.664Z,6.40
2019-03-24T15:07:18.001Z,11.33
2019-03-24T15:09:46.303Z,9.08
2019-03-24T15:12:14.616Z,8.58
2019-03-24T15:14:42.993Z,12.65
2019-03-24T15:17:11.329Z,9.63
2019-03-24T15:19:39.635Z,7.65
2019-03-24T15:22:07.957Z,9.20
2019-03-24T15:24:36.250Z,9.73
2019-03-24T15:27:04.618Z,8.55
2019-03-24T15:29:32.952Z,13.47
2019-03-24T15:32:01.192Z,9.60
2019-03-24T15:34:29.518Z,15.70
2019-03-24T15:36:58.171Z,11.95
2019-03-24T15:39:26.504Z,9.60
2019-03-24T15:43:10.592Z,12.90
2019-03-24T15:45:39.030Z,16.60
2019-03-24T15:48:07.352Z,14.55
2019-03-24T15:50:35.677Z,16.20
2019-03-24T15:53:04.305Z,14.37
2019-03-24T15:55:32.689Z,16.20
2019-03-24T15:58:00.981Z,12.00
2019-03-24T16:00:40.618Z,15.40
2019-03-24T16:03:09.317Z,11.90
2019-03-24T16:05:37.626Z,16.45
2019-03-24T16:08:05.930Z,11.93
2019-03-24T16:10:35.332Z,16.12
2019-03-24T16:13:03.887Z,13.70
2019-03-24T16:15:32.228Z,15.50
2019-03-24T16:18:00.587Z,13.88
2019-03-24T16:20:29.167Z,11.15
2019-03-24T16:22:57.751Z,13.10
2019-03-24T16:25:26.066Z,8.50
2019-03-24T16:27:54.418Z,11.97
2019-03-24T16:30:22.840Z,10.30
2019-03-24T16:32:51.150Z,10.63
2019-03-24T16:35:19.448Z,8.75
2019-03-24T16:37:48.033Z,9.87
2019-03-24T16:40:16.626Z,7.53
2019-03-24T16:42:44.980Z,9.15
2019-03-24T16:45:13.442Z,5.97
2019-03-24T16:47:42.071Z,6.10
2019-03-24T16:50:10.573Z,6.97
2019-03-24T16:52:38.889Z,9.25
2019-03-24T16:55:08.023Z,5.20
2019-03-24T16:57:36.367Z,8.40
2019-03-24T17:00:06.475Z,9.70
2019-03-24T17:02:34.798Z,9.30
2019-03-24T17:05:03.975Z,9.07
2019-03-24T17:07:32.517Z,12.50
2019-03-24T17:10:00.929Z,14.95
2019-03-24T17:12:29.700Z,14.20
2019-03-24T17:14:58.028Z,11.53
2019-03-24T17:17:26.417Z,12.45
2019-03-24T17:19:54.972Z,9.85
2019-03-24T17:22:23.369Z,9.58
2019-03-24T17:24:52.036Z,15.03
2019-03-24T17:27:20.621Z,12.07
2019-03-24T17:29:48.932Z,8.73
2019-03-24T17:32:17.315Z,7.20
2019-03-24T17:34:47.466Z,10.25
2019-03-24T17:37:16.284Z,12.67
2019-03-24T17:39:44.601Z,10.63
2019-03-24T17:42:12.888Z,11.95
2019-03-24T17:44:41.523Z,10.18
2019-03-24T17:47:09.824Z,13.20
2019-03-24T17:49:38.476Z,10.50
2019-03-24T17:52:07.029Z,14.63
2019-03-24T17:54:35.345Z,9.33
2019-03-24T17:57:03.655Z,10.13
2019-03-24T17:59:32.030Z,12.63
2019-03-24T18:02:00.336Z,11.08
2019-03-24T18:04:28.967Z,11.10
2019-03-24T18:06:57.653Z,11.55
2019-03-24T18:09:25.934Z,9.65
2019-03-24T18:11:54.233Z,11.48
2019-03-24T18:14:22.528Z,8.43
2019-03-24T18:16:50.905Z,10.15
2019-03-24T18:19:19.540Z,9.00
2019-03-24T18:21:47.888Z,8.55
2019-03-24T18:24:16.238Z,8.25
2019-03-24T18:26:44.516Z,10.05
2019-03-24T18:29:12.829Z,10.23
2019-03-24T18:31:41.154Z,11.68
2019-03-24T18:34:09.451Z,11.30
2019-03-24T18:36:38.068Z,9.27
2019-03-24T18:39:08.021Z,13.93
2019-03-24T18:41:36.621Z,11.08
2019-03-24T18:44:05.014Z,9.93
2019-03-24T18:46:33.301Z,11.03
2019-03-24T18:49:01.624Z,9.77
2019-03-24T18:51:29.913Z,13.45
2019-03-24T18:53:58.210Z,8.48
2019-03-24T18:56:26.812Z,11.03
2019-03-24T18:58:55.119Z,12.13
2019-03-24T19:01:23.455Z,9.30
2019-03-24T19:03:51.742Z,12.00
2019-03-24T19:06:20.063Z,13.65
2019-03-24T19:08:48.354Z,13.40
2019-03-24T19:11:16.734Z,11.08
2019-03-24T19:13:45.033Z,11.18
2019-03-24T19:16:13.333Z,14.73
2019-03-24T19:18:41.641Z,11.80
2019-03-24T19:21:09.943Z,12.58
2019-03-24T19:23:38.373Z,12.28
2019-03-24T19:26:06.676Z,13.53
2019-03-24T19:28:35.000Z,14.33
2019-03-24T19:31:03.376Z,10.95
2019-03-24T19:33:32.029Z,14.10
2019-03-24T19:36:00.887Z,12.18
2019-03-24T19:38:33.755Z,14.73
2019-03-24T19:41:07.755Z,14.25
2019-03-24T19:43:36.229Z,13.58
2019-03-24T19:46:04.598Z,13.00
2019-03-24T19:48:32.902Z,9.93
2019-03-24T19:51:03.636Z,10.53
2019-03-24T19:53:31.960Z,10.18
2019-03-24T19:56:00.353Z,10.17
2019-03-24T19:58:28.665Z,13.85
2019-03-24T20:00:56.969Z,15.30
2019-03-24T20:03:25.316Z,11.08
2019-03-24T20:05:53.607Z,11.80
2019-03-24T20:08:22.141Z,12.13
2019-03-24T20:10:50.445Z,10.63
2019-03-24T20:13:18.765Z,13.05
2019-03-24T20:15:47.084Z,12.60
2019-03-24T20:18:15.409Z,11.55
2019-03-24T20:20:43.773Z,11.63
2019-03-24T20:23:12.075Z,10.03
2019-03-24T20:25:40.713Z,14.30
2019-03-24T20:28:09.007Z,13.62
2019-03-24T20:30:37.316Z,14.20
2019-03-24T20:33:05.751Z,13.08
2019-03-24T20:35:34.404Z,19.12
2019-03-24T20:38:02.851Z,12.35
2019-03-24T20:40:31.189Z,10.82
2019-03-24T20:42:59.515Z,16.60
2019-03-24T20:45:27.846Z,14.33
2019-03-24T20:47:56.151Z,17.93
2019-03-24T20:50:24.452Z,16.83
2019-03-24T20:53:03.399Z,9.70
2019-03-24T20:55:22.781Z,9.00
2019-03-24T20:57:51.592Z,10.00
2019-03-24T21:00:23.264Z,13.43
2019-03-24T21:02:51.580Z,16.02
2019-03-24T21:05:19.868Z,13.48
2019-03-24T21:07:48.282Z,12.90
2019-03-24T21:10:16.570Z,11.03
2019-03-24T21:12:44.913Z,17.33
2019-03-24T21:15:13.306Z,11.70
2019-03-24T21:17:41.593Z,14.20
2019-03-24T21:20:10.588Z,12.60
2019-03-24T21:22:38.890Z,13.75
2019-03-24T21:25:08.494Z,14.80
2019-03-24T21:27:37.213Z,14.50
2019-03-24T21:30:07.162Z,11.22
2019-03-24T21:32:35.451Z,12.13
2019-03-24T21:35:05.295Z,12.40
2019-03-24T21:37:33.598Z,13.70
2019-03-24T21:40:01.916Z,13.00
2019-03-24T21:42:30.211Z,11.43
2019-03-24T21:44:58.513Z,13.25
2019-03-24T21:47:27.104Z,11.93
2019-03-24T21:49:55.393Z,13.40
2019-03-24T21:52:23.969Z,18.35
2019-03-24T21:54:52.286Z,13.05
2019-03-24T21:57:20.929Z,15.55
2019-03-24T21:59:49.217Z,9.95
2019-03-24T22:02:17.844Z,14.53
2019-03-24T22:04:46.157Z,13.30
2019-03-24T22:07:14.703Z,15.85
2019-03-24T22:09:43.011Z,12.20
2019-03-24T22:12:11.340Z,9.85
2019-03-24T22:14:40.088Z,17.50
2019-03-24T22:17:08.548Z,21.00
2019-03-24T22:19:38.684Z,14.28
2019-03-24T22:22:06.867Z,14.80
2019-03-24T22:24:35.197Z,12.20
2019-03-24T22:27:03.506Z,16.53
2019-03-24T22:29:31.796Z,10.68
2019-03-24T22:32:00.105Z,15.40
2019-03-24T22:34:28.415Z,11.03
2019-03-24T22:36:56.744Z,14.10
2019-03-24T22:39:25.424Z,11.63
2019-03-24T22:41:53.701Z,16.10
2019-03-24T22:44:21.999Z,11.93
2019-03-24T22:46:50.653Z,16.97
2019-03-24T22:49:18.941Z,13.70
2019-03-24T22:51:47.260Z,14.78
2019-03-24T22:54:15.884Z,16.80
2019-03-24T22:56:44.377Z,11.93
2019-03-24T22:59:12.616Z,18.25
2019-03-24T23:01:41.256Z,11.97
2019-03-24T23:04:09.547Z,15.88
2019-03-24T23:06:37.864Z,15.43
2019-03-24T23:09:09.056Z,17.32
2019-03-24T23:11:37.387Z,14.90
2019-03-24T23:14:05.683Z,15.10
2019-03-24T23:16:34.018Z,15.93
2019-03-24T23:19:02.305Z,10.35
2019-03-24T23:21:30.872Z,14.75
2019-03-24T23:23:59.155Z,14.87
2019-03-24T23:26:27.519Z,10.80
2019-03-24T23:28:55.847Z,17.48
2019-03-24T23:31:24.126Z,14.23
2019-03-24T23:33:52.423Z,12.03
2019-03-24T23:36:20.743Z,16.37
2019-03-24T23:38:49.098Z,13.60
2019-03-24T23:41:17.381Z,11.48
2019-03-24T23:43:45.706Z,16.27
2019-03-24T23:46:14.068Z,12.82
2019-03-24T23:48:42.369Z,13.08
2019-03-24T23:51:10.967Z,10.45
2019-03-24T23:53:39.538Z,11.33
2019-03-24T23:56:07.897Z,12.35
2019-03-24T23:58:41.077Z,15.90
